Time;durP1;ratioP1;P1;durP2;ratioP2;P2;SDS_P1;SDS_P2;PMS_P1;PMS_P2;Temp;Humidity;BMP_temperature;BMP_pressure;BME280_temperature;BME280_humidity;BME280_pressure;Samples;Min_cycle;Max_cycle;Signal;HPM_P1;HPM_P2
2024/04/11 00:04:41;;;;;;;2.92;0.75;;;;;;;;;;22355731;26;20003;-45
2024/04/11 00:14:44;;;;;;;1.92;0.50;;;;;;;;;;22353632;26;20068;-46
2024/04/11 00:24:48;;;;;;;2.25;0.50;;;;;;;;;;22369224;26;20036;-47
2024/04/11 00:34:50;;;;;;;1.83;0.60;;;;;;;;;;22355798;26;20032;-47
2024/04/11 00:44:52;;;;;;;3.22;0.90;;;;;;;;;;22382097;26;20007;-46
2024/04/11 00:54:53;;;;;;;2.20;0.60;;;;;;;;;;22356684;26;20003;-46
2024/04/11 01:05:00;;;;;;;2.55;0.40;;;;;;;;;;22364397;26;20009;-44
2024/04/11 01:15:03;;;;;;;2.42;0.32;;;;;;;;;;22379237;26;20078;-44
2024/04/11 01:25:05;;;;;;;5.07;0.60;;;;;;;;;;22394815;26;20311;-43
2024/04/11 01:35:24;;;;;;;4.10;0.68;;;;;;;;;;22406076;26;20008;-45
2024/04/11 01:45:26;;;;;;;4.18;1.00;;;;;;;;;;22397875;26;20004;-44
2024/04/11 01:55:28;;;;;;;4.53;0.80;;;;;;;;;;22383431;26;20515;-44
2024/04/11 02:05:29;;;;;;;1.80;0.70;;;;;;;;;;22394808;26;20018;-44
2024/04/11 02:15:32;;;;;;;4.43;0.98;;;;;;;;;;22384974;26;20007;-46
2024/04/11 02:25:34;;;;;;;3.95;1.50;;;;;;;;;;22405870;26;20040;-44
2024/04/11 02:35:38;;;;;;;2.42;0.68;;;;;;;;;;22405047;26;20003;-44
2024/04/11 02:45:39;;;;;;;;;;;;;;;;;;22404667;26;20019;-44
2024/04/11 02:55:41;;;;;;;2.88;0.63;;;;;;;;;;22393448;26;20824;-44
2024/04/11 03:05:43;;;;;;;2.35;0.70;;;;;;;;;;22406259;26;20053;-44
2024/04/11 03:15:45;;;;;;;4.25;0.68;;;;;;;;;;22402730;26;20463;-47
2024/04/11 03:26:21;;;;;;;5.95;0.75;;;;;;;;;;22402473;26;20007;-44
2024/04/11 03:36:23;;;;;;;2.42;0.60;;;;;;;;;;22395776;26;20028;-44
2024/04/11 03:46:24;;;;;;;2.25;0.47;;;;;;;;;;22398307;26;20459;-45
2024/04/11 03:56:27;;;;;;;2.78;0.85;;;;;;;;;;22405824;26;20323;-45
2024/04/11 04:06:29;;;;;;;1.92;0.50;;;;;;;;;;22413584;26;20007;-44
2024/04/11 04:16:31;;;;;;;2.85;0.68;;;;;;;;;;22394915;26;20011;-44
2024/04/11 04:26:32;;;;;;;2.92;0.50;;;;;;;;;;22415786;26;20011;-47
2024/04/11 04:36:40;;;;;;;3.47;0.80;;;;;;;;;;22410838;26;20040;-46
2024/04/11 04:46:41;;;;;;;3.10;0.55;;;;;;;;;;22410097;26;20937;-48
2024/04/11 04:56:45;;;;;;;3.03;0.80;;;;;;;;;;22411819;26;20023;-44
2024/04/11 05:06:49;;;;;;;5.10;0.70;;;;;;;;;;22412298;26;20081;-44
2024/04/11 05:17:21;;;;;;;4.60;1.43;;;;;;;;;;22412237;26;20588;-45
2024/04/11 05:27:23;;;;;;;3.55;1.23;;;;;;;;;;22394300;26;20031;-45
2024/04/11 05:37:24;;;;;;;7.35;1.65;;;;;;;;;;22368532;26;20085;-44
2024/04/11 05:47:26;;;;;;;5.47;1.00;;;;;;;;;;22398629;26;20607;-45
2024/04/11 05:57:28;;;;;;;5.43;1.20;;;;;;;;;;22398558;26;20084;-44
2024/04/11 06:07:30;;;;;;;3.10;0.90;;;;;;;;;;22406056;26;20333;-46
2024/04/11 06:17:31;;;;;;;6.45;1.20;;;;;;;;;;22387901;26;20034;-47
2024/04/11 06:27:33;;;;;;;5.28;1.45;;;;;;;;;;22342474;26;20467;-46
2024/04/11 06:37:34;;;;;;;4.55;1.80;;;;;;;;;;22337241;26;20017;-47
2024/04/11 06:47:37;;;;;;;6.05;2.10;;;;;;;;;;22405515;26;20090;-43
2024/04/11 06:57:40;;;;;;;7.70;1.98;;;;;;;;;;22370454;26;20017;-44
2024/04/11 07:07:54;;;;;;;10.50;2.40;;;;;;;;;;22403458;26;20550;-43
2024/04/11 07:17:58;;;;;;;7.60;2.23;;;;;;;;;;22357872;26;20004;-44
2024/04/11 07:28:00;;;;;;;9.55;3.53;;;;;;;;;;22382635;26;20015;-47
2024/04/11 07:38:02;;;;;;;9.85;2.85;;;;;;;;;;22400796;26;20007;-46
2024/04/11 07:48:05;;;;;;;11.23;2.60;;;;;;;;;;22399489;26;20323;-45
2024/04/11 07:58:07;;;;;;;9.90;2.65;;;;;;;;;;22400521;26;20416;-44
2024/04/11 08:08:12;;;;;;;11.95;3.25;;;;;;;;;;22399672;26;20439;-52
2024/04/11 08:18:14;;;;;;;;;;;;;;;;;;22343071;26;20016;-53
2024/04/11 08:28:17;;;;;;;7.07;1.70;;;;;;;;;;22398662;26;19943;-52
2024/04/11 08:38:23;;;;;;;3.28;0.73;;;;;;;;;;22396471;26;20508;-52
2024/04/11 08:48:25;;;;;;;2.30;1.05;;;;;;;;;;22395445;26;20080;-52
2024/04/11 08:58:29;;;;;;;6.10;0.90;;;;;;;;;;22409770;26;20003;-51
2024/04/11 09:08:32;;;;;;;5.05;0.80;;;;;;;;;;22380054;26;20026;-52
2024/04/11 09:18:34;;;;;;;4.75;0.68;;;;;;;;;;22410880;26;20019;-50
2024/04/11 09:28:36;;;;;;;3.35;0.70;;;;;;;;;;22409803;26;20011;-52
2024/04/11 09:38:42;;;;;;;2.37;0.80;;;;;;;;;;22408053;26;20087;-52
2024/04/11 09:48:44;;;;;;;2.55;0.30;;;;;;;;;;22405271;26;20007;-50
2024/04/11 09:58:46;;;;;;;2.47;0.40;;;;;;;;;;22407871;26;20361;-52
2024/04/11 10:08:49;;;;;;;2.33;0.63;;;;;;;;;;22399232;26;20453;-51
2024/04/11 10:19:04;;;;;;;8.13;1.05;;;;;;;;;;22376270;26;20022;-50
2024/04/11 10:29:18;;;;;;;3.83;0.60;;;;;;;;;;22389900;26;20059;-50
2024/04/11 10:39:21;;;;;;;1.90;0.50;;;;;;;;;;22383998;26;20008;-53
2024/04/11 10:49:28;;;;;;;1.90;0.40;;;;;;;;;;22371969;26;20019;-52
2024/04/11 10:59:32;;;;;;;3.10;0.50;;;;;;;;;;22375605;26;20003;-50
2024/04/11 11:09:35;;;;;;;;;;;;;;;;;;22403653;26;20426;-51
2024/04/11 11:19:37;;;;;;;5.90;0.77;;;;;;;;;;22402489;26;19994;-49
2024/04/11 11:29:42;;;;;;;5.32;0.47;;;;;;;;;;22402331;26;20411;-51
2024/04/11 11:39:49;;;;;;;2.85;0.50;;;;;;;;;;22399588;26;20018;-51
2024/04/11 11:49:51;;;;;;;2.42;0.57;;;;;;;;;;22399215;26;20018;-50
2024/04/11 11:59:53;;;;;;;1.20;0.50;;;;;;;;;;22400021;26;20012;-51
2024/04/11 12:10:12;;;;;;;2.63;0.57;;;;;;;;;;22399861;26;20431;-52
2024/04/11 12:20:15;;;;;;;0.70;0.20;;;;;;;;;;22386745;26;20004;-49
2024/04/11 12:30:22;;;;;;;2.53;0.35;;;;;;;;;;22413876;26;20008;-50
2024/04/11 12:40:33;;;;;;;0.63;0.10;;;;;;;;;;22349169;26;20015;-52
2024/04/11 12:50:36;;;;;;;2.03;0.30;;;;;;;;;;22409138;26;20052;-50
2024/04/11 13:00:44;;;;;;;1.73;0.40;;;;;;;;;;22393785;26;20003;-50
2024/04/11 13:10:50;;;;;;;0.32;0.17;;;;;;;;;;22383668;26;20011;-54
2024/04/11 13:20:52;;;;;;;4.55;0.38;;;;;;;;;;22326426;26;20007;-54
2024/04/11 13:30:55;;;;;;;5.10;0.40;;;;;;;;;;22409853;26;20022;-53
2024/04/11 13:51:15;;;;;;;2.35;0.20;;;;;;;;;;22401326;26;20004;-51
2024/04/11 14:01:41;;;;;;;2.00;0.30;;;;;;;;;;22374108;26;20447;-51
2024/04/11 14:11:48;;;;;;;3.00;0.20;;;;;;;;;;22394551;26;20022;-51
2024/04/11 14:21:53;;;;;;;0.80;0.20;;;;;;;;;;22408530;26;20047;-52
2024/04/11 14:31:54;;;;;;;0.22;0.00;;;;;;;;;;22379467;26;20003;-51
2024/04/11 14:41:58;;;;;;;0.43;0.10;;;;;;;;;;22389569;26;20020;-50
2024/04/11 14:51:59;;;;;;;2.00;0.20;;;;;;;;;;22383558;26;20023;-51
2024/04/11 15:02:06;;;;;;;0.38;0.17;;;;;;;;;;22381087;26;20015;-51
2024/04/11 15:12:13;;;;;;;0.88;0.20;;;;;;;;;;22403738;26;20008;-51
2024/04/11 15:22:22;;;;;;;0.95;0.20;;;;;;;;;;22402854;26;20015;-50
2024/04/11 15:32:32;;;;;;;0.52;0.20;;;;;;;;;;22379797;26;20436;-52
2024/04/11 15:42:33;;;;;;;0.65;0.10;;;;;;;;;;22402081;26;20077;-51
2024/04/11 15:52:36;;;;;;;2.92;0.20;;;;;;;;;;22408695;26;20461;-51
2024/04/11 16:02:43;;;;;;;2.15;0.30;;;;;;;;;;22384201;26;20027;-53
2024/04/11 16:12:47;;;;;;;2.33;0.20;;;;;;;;;;22360073;26;20007;-52
2024/04/11 16:22:48;;;;;;;1.98;0.10;;;;;;;;;;22396979;26;20023;-52
2024/04/11 16:32:51;;;;;;;0.82;0.10;;;;;;;;;;22412820;26;20003;-53
2024/04/11 16:43:22;;;;;;;3.45;2.15;;;;;;;;;;22410980;26;20031;-51
2024/04/11 16:53:32;;;;;;;0.90;0.30;;;;;;;;;;22395192;26;20007;-53
2024/04/11 17:03:37;;;;;;;0.95;0.30;;;;;;;;;;22410343;26;20008;-50
2024/04/11 17:13:44;;;;;;;1.13;0.20;;;;;;;;;;22402950;26;20333;-52
2024/04/11 17:23:46;;;;;;;0.70;0.20;;;;;;;;;;22405333;26;20058;-51
2024/04/11 17:33:52;;;;;;;1.23;0.22;;;;;;;;;;22398762;26;20063;-53
2024/04/11 17:43:56;;;;;;;0.73;0.28;;;;;;;;;;22394867;26;20142;-53
2024/04/11 17:53:58;;;;;;;1.42;0.22;;;;;;;;;;22355511;26;20413;-53
2024/04/11 18:04:00;;;;;;;1.05;0.40;;;;;;;;;;22385488;26;20023;-51
2024/04/11 18:14:06;;;;;;;0.88;0.30;;;;;;;;;;22388811;26;20008;-52
2024/04/11 18:24:12;;;;;;;0.75;0.30;;;;;;;;;;22397069;26;20809;-53
2024/04/11 18:34:14;;;;;;;2.05;0.52;;;;;;;;;;22385033;26;20068;-51
2024/04/11 18:44:19;;;;;;;1.88;0.75;;;;;;;;;;22411691;26;20019;-52
2024/04/11 18:54:20;;;;;;;3.88;1.00;;;;;;;;;;22406916;26;20022;-51
2024/04/11 19:04:41;;;;;;;3.92;0.60;;;;;;;;;;22393290;26;20034;-52
2024/04/11 19:14:47;;;;;;;4.20;0.65;;;;;;;;;;22389491;26;20007;-52
2024/04/11 19:24:54;;;;;;;2.78;0.40;;;;;;;;;;22384229;26;20015;-51
2024/04/11 19:34:56;;;;;;;1.90;0.38;;;;;;;;;;22402567;26;20008;-52
2024/04/11 19:45:12;;;;;;;3.63;0.80;;;;;;;;;;22342966;26;20008;-52
2024/04/11 19:55:28;;;;;;;2.00;0.50;;;;;;;;;;22305879;26;20308;-46
2024/04/11 20:05:39;;;;;;;1.83;0.70;;;;;;;;;;22327251;26;20012;-47
2024/04/11 20:15:42;;;;;;;1.85;0.70;;;;;;;;;;22315392;26;20015;-43
2024/04/11 20:25:51;;;;;;;2.63;1.02;;;;;;;;;;22328226;26;20007;-46
2024/04/11 20:35:54;;;;;;;2.45;1.35;;;;;;;;;;22342022;26;19999;-45
2024/04/11 20:45:56;;;;;;;3.08;0.90;;;;;;;;;;22332450;26;20000;-44
2024/04/11 21:37:25;;;;;;;4.40;0.90;;;;;;;;;;22374543;26;20000;-47
2024/04/11 21:47:28;;;;;;;1.92;0.70;;;;;;;;;;22396445;26;20017;-47
2024/04/11 21:57:32;;;;;;;4.15;0.82;;;;;;;;;;22403746;26;20003;-47
2024/04/11 22:07:35;;;;;;;2.78;0.70;;;;;;;;;;22380749;26;20319;-45
2024/04/11 22:17:39;;;;;;;2.92;0.70;;;;;;;;;;22404210;26;20425;-47
2024/04/11 22:27:47;;;;;;;1.38;0.50;;;;;;;;;;22403437;26;19999;-46
2024/04/11 22:37:54;;;;;;;4.53;0.68;;;;;;;;;;22405359;26;20003;-45
2024/04/11 22:47:57;;;;;;;3.75;1.45;;;;;;;;;;22393533;26;20342;-45
2024/04/11 22:57:58;;;;;;;6.63;0.73;;;;;;;;;;22402795;26;20047;-45
2024/04/11 23:08:00;;;;;;;6.32;0.63;;;;;;;;;;22402698;26;20000;-45
2024/04/11 23:18:07;;;;;;;5.05;0.73;;;;;;;;;;22402806;26;20023;-45
2024/04/11 23:28:10;;;;;;;4.03;0.50;;;;;;;;;;22402122;26;20015;-46
2024/04/11 23:38:11;;;;;;;5.28;0.85;;;;;;;;;;22391544;26;20019;-46
2024/04/11 23:48:17;;;;;;;3.10;0.77;;;;;;;;;;22419417;26;20710;-47
2024/04/11 23:58:29;;;;;;;3.80;0.73;;;;;;;;;;22400033;26;20079;-44
